Time;durP1;ratioP1;P1;durP2;ratioP2;P2;SDS_P1;SDS_P2;PMS_P1;PMS_P2;Temp;Humidity;BMP_temperature;BMP_pressure;BME280_temperature;BME280_humidity;BME280_pressure;Samples;Min_cycle;Max_cycle;Signal;HPM_P1;HPM_P2
2022/10/09 00:00:02;;;;;;;3.47;1.83;;;;;;;;;;4952549;28;20445;-69
2022/10/09 00:02:28;;;;;;;4.87;1.83;;;;;;;;;;4952907;28;20526;-69
2022/10/09 00:04:54;;;;;;;2.80;2.30;;;;;;;;;;4952798;28;20439;-71
2022/10/09 00:07:20;;;;;;;3.23;2.30;;;;;;;;;;4952330;28;20501;-69
2022/10/09 00:09:46;;;;;;;4.53;1.77;;;;;;;;;;4953065;28;20447;-71
2022/10/09 00:12:12;;;;;;;2.57;1.77;;;;;;;;;;4952020;28;20443;-71
2022/10/09 00:14:38;;;;;;;5.40;1.50;;;;;;;;;;4952726;28;20474;-72
2022/10/09 00:17:04;;;;;;;2.40;1.67;;;;;;;;;;4952840;28;20443;-71
2022/10/09 00:19:30;;;;;;;2.37;2.10;;;;;;;;;;4952366;28;20434;-72
2022/10/09 00:21:56;;;;;;;2.30;1.70;;;;;;;;;;4951672;28;20435;-70
2022/10/09 00:24:22;;;;;;;7.93;2.00;;;;;;;;;;4952365;28;20510;-71
2022/10/09 00:26:48;;;;;;;1.87;1.77;;;;;;;;;;4953040;28;20950;-70
2022/10/09 00:29:14;;;;;;;1.90;1.80;;;;;;;;;;4952853;28;20919;-70
2022/10/09 00:31:40;;;;;;;2.70;1.80;;;;;;;;;;4952063;28;21042;-71
2022/10/09 00:34:06;;;;;;;2.17;2.03;;;;;;;;;;4952474;28;20429;-70
2022/10/09 00:36:32;;;;;;;2.00;1.87;;;;;;;;;;4952339;28;20502;-69
2022/10/09 00:38:58;;;;;;;2.67;1.80;;;;;;;;;;4952282;28;20791;-70
2022/10/09 00:41:28;;;;;;;4.00;2.30;;;;;;;;;;4951113;28;20469;-71
2022/10/09 00:43:54;;;;;;;2.00;1.90;;;;;;;;;;4950845;28;20431;-72
2022/10/09 00:46:26;;;;;;;2.20;2.10;;;;;;;;;;4952727;28;20449;-70
2022/10/09 00:49:01;;;;;;;2.03;1.93;;;;;;;;;;4952106;28;20434;-72
2022/10/09 00:51:28;;;;;;;1.80;1.70;;;;;;;;;;4952654;28;20492;-70
2022/10/09 00:53:54;;;;;;;2.73;2.47;;;;;;;;;;4951086;28;20514;-69
2022/10/09 00:56:20;;;;;;;2.13;2.03;;;;;;;;;;4951540;28;20453;-68
2022/10/09 00:58:48;;;;;;;2.50;1.90;;;;;;;;;;4951928;28;20806;-69
2022/10/09 01:01:14;;;;;;;1.90;1.80;;;;;;;;;;4951451;28;20456;-68
2022/10/09 01:03:40;;;;;;;1.77;1.70;;;;;;;;;;4951750;28;20431;-69
2022/10/09 01:06:15;;;;;;;2.30;2.20;;;;;;;;;;4952415;28;20838;-69
2022/10/09 01:08:51;;;;;;;2.87;2.03;;;;;;;;;;4951352;28;20530;-70
2022/10/09 01:11:20;;;;;;;1.47;1.47;;;;;;;;;;4951743;28;20508;-68
2022/10/09 01:13:49;;;;;;;6.27;1.67;;;;;;;;;;4951258;28;20447;-69
2022/10/09 01:16:26;;;;;;;4.37;1.60;;;;;;;;;;4951246;28;20453;-70
2022/10/09 01:18:56;;;;;;;4.40;2.20;;;;;;;;;;4950312;28;20453;-69
2022/10/09 01:21:22;;;;;;;1.77;1.67;;;;;;;;;;4951905;28;20433;-69
2022/10/09 01:23:51;;;;;;;2.20;2.10;;;;;;;;;;4950902;28;20521;-69
2022/10/09 01:26:20;;;;;;;2.17;1.90;;;;;;;;;;4948597;28;20493;-69
2022/10/09 01:28:48;;;;;;;2.73;1.60;;;;;;;;;;4951826;28;20431;-70
2022/10/09 01:31:16;;;;;;;1.30;1.27;;;;;;;;;;4951342;28;20482;-70
2022/10/09 01:33:42;;;;;;;2.17;2.07;;;;;;;;;;4951593;28;20462;-71
2022/10/09 01:36:09;;;;;;;2.67;1.90;;;;;;;;;;4951972;28;20431;-69
2022/10/09 01:38:35;;;;;;;3.03;2.03;;;;;;;;;;4950669;28;20506;-69
2022/10/09 01:41:02;;;;;;;5.50;1.80;;;;;;;;;;4951055;28;20538;-68
2022/10/09 01:43:28;;;;;;;1.50;1.40;;;;;;;;;;4951300;28;20459;-71
2022/10/09 01:46:14;;;;;;;1.90;1.60;;;;;;;;;;4951200;28;20474;-70
2022/10/09 01:48:40;;;;;;;1.50;1.50;;;;;;;;;;4951654;28;20434;-70
2022/10/09 01:51:06;;;;;;;2.70;1.60;;;;;;;;;;4950707;28;20490;-72
2022/10/09 01:53:33;;;;;;;1.50;1.30;;;;;;;;;;4949087;28;20960;-69
2022/10/09 01:56:04;;;;;;;1.73;1.60;;;;;;;;;;4951974;28;20466;-69
2022/10/09 01:58:33;;;;;;;4.63;1.37;;;;;;;;;;4951248;28;20438;-70
2022/10/09 02:01:05;;;;;;;1.90;1.80;;;;;;;;;;4950187;28;20450;-72
2022/10/09 02:03:32;;;;;;;11.17;2.00;;;;;;;;;;4950849;28;21010;-71
2022/10/09 02:06:00;;;;;;;3.97;1.70;;;;;;;;;;4951912;28;20427;-71
2022/10/09 02:08:28;;;;;;;3.30;1.67;;;;;;;;;;4952139;28;20431;-68
2022/10/09 02:10:55;;;;;;;2.63;1.60;;;;;;;;;;4955273;28;20545;-69
2022/10/09 02:13:21;;;;;;;1.30;1.17;;;;;;;;;;4954930;28;20441;-70
2022/10/09 02:15:50;;;;;;;5.93;1.53;;;;;;;;;;4955502;28;20481;-69
2022/10/09 02:18:19;;;;;;;1.33;1.23;;;;;;;;;;4954370;28;20453;-69
2022/10/09 02:20:48;;;;;;;1.90;1.20;;;;;;;;;;4954735;28;20478;-71
2022/10/09 02:23:14;;;;;;;1.40;1.33;;;;;;;;;;4954497;28;20442;-69
2022/10/09 02:25:40;;;;;;;4.60;1.53;;;;;;;;;;4955052;28;20449;-69
2022/10/09 02:28:06;;;;;;;1.83;1.50;;;;;;;;;;4955041;28;20517;-69
2022/10/09 02:30:56;;;;;;;1.70;1.60;;;;;;;;;;4955373;28;20987;-69
2022/10/09 02:33:26;;;;;;;5.60;1.77;;;;;;;;;;4954732;28;20431;-71
2022/10/09 02:35:52;;;;;;;1.40;1.40;;;;;;;;;;4954744;28;20813;-70
2022/10/09 02:38:18;;;;;;;1.90;1.83;;;;;;;;;;4953258;28;20478;-69
2022/10/09 02:40:44;;;;;;;1.70;1.70;;;;;;;;;;4953814;28;20438;-69
2022/10/09 02:43:10;;;;;;;4.10;1.43;;;;;;;;;;4952431;28;20446;-70
2022/10/09 02:45:36;;;;;;;4.83;1.63;;;;;;;;;;4953559;28;20449;-72
2022/10/09 02:48:01;;;;;;;7.10;1.97;;;;;;;;;;4953812;28;20505;-70
2022/10/09 02:50:27;;;;;;;1.43;1.43;;;;;;;;;;4953574;28;20470;-69
2022/10/09 02:52:53;;;;;;;1.83;1.57;;;;;;;;;;4952973;28;20451;-69
2022/10/09 02:55:19;;;;;;;11.43;2.60;;;;;;;;;;4952705;28;20793;-69
2022/10/09 02:57:45;;;;;;;6.13;2.30;;;;;;;;;;4952034;28;20435;-69
2022/10/09 03:00:12;;;;;;;1.83;1.77;;;;;;;;;;4953363;28;20426;-71
2022/10/09 03:02:38;;;;;;;5.60;2.00;;;;;;;;;;4953675;28;20419;-69
2022/10/09 03:05:04;;;;;;;2.40;2.20;;;;;;;;;;4952668;28;20861;-71
2022/10/09 03:07:30;;;;;;;4.17;3.90;;;;;;;;;;4952747;28;20443;-69
2022/10/09 03:09:57;;;;;;;1.70;1.60;;;;;;;;;;4953180;28;20431;-69
2022/10/09 03:12:23;;;;;;;1.57;1.57;;;;;;;;;;4953443;28;20427;-70
2022/10/09 03:14:49;;;;;;;2.67;1.30;;;;;;;;;;4952843;28;20481;-69
2022/10/09 03:17:15;;;;;;;2.40;2.20;;;;;;;;;;4952899;28;20443;-69
2022/10/09 03:19:41;;;;;;;2.53;2.33;;;;;;;;;;4952258;28;21022;-69
2022/10/09 03:22:06;;;;;;;1.60;1.50;;;;;;;;;;4952829;28;20850;-68
2022/10/09 03:24:32;;;;;;;2.17;1.63;;;;;;;;;;4952485;28;20446;-69
2022/10/09 03:26:58;;;;;;;5.77;1.60;;;;;;;;;;4951489;28;20443;-69
2022/10/09 03:29:24;;;;;;;2.40;2.30;;;;;;;;;;4952751;28;20704;-69
2022/10/09 03:31:50;;;;;;;3.60;1.57;;;;;;;;;;4953057;28;21003;-69
2022/10/09 03:34:16;;;;;;;2.03;1.80;;;;;;;;;;4951998;28;20438;-69
2022/10/09 03:36:42;;;;;;;2.03;1.67;;;;;;;;;;4914731;28;1068883;-70
2022/10/09 03:39:08;;;;;;;1.70;1.60;;;;;;;;;;4954101;28;20442;-70
2022/10/09 03:41:34;;;;;;;2.37;1.60;;;;;;;;;;4952860;28;20466;-69
2022/10/09 03:44:00;;;;;;;4.90;1.77;;;;;;;;;;4952952;28;20427;-69
2022/10/09 03:46:26;;;;;;;2.20;2.10;;;;;;;;;;4953280;28;20474;-69
2022/10/09 03:48:52;;;;;;;1.73;1.30;;;;;;;;;;4953378;28;20431;-69
2022/10/09 03:51:18;;;;;;;3.00;2.80;;;;;;;;;;4953448;28;21063;-69
2022/10/09 03:53:44;;;;;;;2.33;2.23;;;;;;;;;;4953084;28;20438;-69
2022/10/09 03:56:10;;;;;;;4.10;2.70;;;;;;;;;;4953583;28;20509;-69
2022/10/09 03:58:36;;;;;;;1.70;1.60;;;;;;;;;;4952983;28;20453;-69
2022/10/09 04:01:02;;;;;;;3.13;2.30;;;;;;;;;;4953186;28;20478;-69
2022/10/09 04:03:28;;;;;;;3.43;3.20;;;;;;;;;;4952434;28;20431;-70
2022/10/09 04:05:54;;;;;;;3.07;2.97;;;;;;;;;;4953731;28;20442;-70
2022/10/09 04:08:20;;;;;;;4.33;3.30;;;;;;;;;;4953202;28;20419;-69
2022/10/09 04:10:46;;;;;;;4.47;3.30;;;;;;;;;;4953367;28;20513;-69
2022/10/09 04:13:12;;;;;;;6.60;3.70;;;;;;;;;;4952773;28;20876;-69
2022/10/09 04:15:38;;;;;;;6.70;3.00;;;;;;;;;;4951801;28;20435;-69
2022/10/09 04:18:04;;;;;;;3.60;3.30;;;;;;;;;;4953383;28;20442;-69
2022/10/09 04:20:30;;;;;;;4.73;3.47;;;;;;;;;;4952669;28;20446;-68
2022/10/09 04:22:56;;;;;;;4.57;3.50;;;;;;;;;;4951373;28;20439;-69
2022/10/09 04:25:22;;;;;;;4.20;3.80;;;;;;;;;;4952807;28;20423;-69
2022/10/09 04:27:48;;;;;;;3.63;3.47;;;;;;;;;;4953218;28;20431;-68
2022/10/09 04:30:14;;;;;;;9.47;3.63;;;;;;;;;;4951780;28;20959;-69
2022/10/09 04:32:40;;;;;;;4.60;3.70;;;;;;;;;;4952707;28;20427;-68
2022/10/09 04:35:06;;;;;;;4.27;3.97;;;;;;;;;;4952472;28;20431;-69
2022/10/09 04:37:33;;;;;;;5.67;4.10;;;;;;;;;;4952341;28;20557;-69
2022/10/09 04:39:59;;;;;;;4.43;4.17;;;;;;;;;;4951117;28;20435;-69
2022/10/09 04:42:25;;;;;;;10.10;5.03;;;;;;;;;;4952373;28;20439;-71
2022/10/09 04:44:51;;;;;;;6.30;5.80;;;;;;;;;;4952258;28;20443;-71
2022/10/09 04:47:17;;;;;;;5.67;5.30;;;;;;;;;;4951698;28;20443;-72
2022/10/09 04:49:43;;;;;;;5.17;4.77;;;;;;;;;;4952779;28;20443;-70
2022/10/09 04:52:09;;;;;;;5.83;5.27;;;;;;;;;;4951956;28;20490;-71
2022/10/09 04:54:35;;;;;;;5.63;5.13;;;;;;;;;;4952066;28;20843;-71
2022/10/09 04:57:01;;;;;;;5.70;5.40;;;;;;;;;;4951637;28;20453;-69
2022/10/09 04:59:27;;;;;;;5.83;5.37;;;;;;;;;;4952265;28;20463;-69
2022/10/09 05:01:52;;;;;;;5.17;4.70;;;;;;;;;;4952385;28;20497;-71
2022/10/09 05:04:18;;;;;;;5.97;5.47;;;;;;;;;;4951922;28;20519;-69
2022/10/09 05:06:44;;;;;;;5.63;5.33;;;;;;;;;;4952013;28;20978;-70
2022/10/09 05:09:10;;;;;;;5.43;5.03;;;;;;;;;;4952421;28;20515;-71
2022/10/09 05:11:36;;;;;;;4.30;4.10;;;;;;;;;;4951809;28;20578;-70
2022/10/09 05:14:02;;;;;;;5.07;4.83;;;;;;;;;;4951718;28;20426;-70
2022/10/09 05:16:30;;;;;;;4.50;4.30;;;;;;;;;;4951674;28;20450;-69
2022/10/09 05:18:57;;;;;;;5.40;4.50;;;;;;;;;;4951821;28;20855;-69
2022/10/09 05:21:23;;;;;;;4.87;4.50;;;;;;;;;;4951958;28;20485;-72
2022/10/09 05:23:50;;;;;;;4.70;4.30;;;;;;;;;;4951633;28;20427;-69
2022/10/09 05:26:17;;;;;;;8.17;4.40;;;;;;;;;;4951222;28;20439;-70
2022/10/09 05:28:43;;;;;;;4.13;3.87;;;;;;;;;;4951864;28;20423;-71
2022/10/09 05:31:09;;;;;;;3.77;3.67;;;;;;;;;;4951896;28;20489;-70
2022/10/09 05:33:36;;;;;;;5.10;4.70;;;;;;;;;;4951625;28;20426;-69
2022/10/09 05:36:03;;;;;;;4.03;3.93;;;;;;;;;;4951124;28;20425;-69
2022/10/09 05:38:30;;;;;;;5.00;4.60;;;;;;;;;;4951268;28;21102;-69
2022/10/09 05:40:57;;;;;;;4.27;4.00;;;;;;;;;;4951182;28;20510;-69
2022/10/09 05:43:24;;;;;;;4.40;4.13;;;;;;;;;;4950839;28;20435;-69
2022/10/09 05:45:50;;;;;;;4.30;4.00;;;;;;;;;;4951798;28;20435;-69
2022/10/09 05:48:16;;;;;;;4.03;3.93;;;;;;;;;;4950293;28;20423;-69
2022/10/09 05:50:42;;;;;;;4.37;4.27;;;;;;;;;;4951128;28;20494;-70
2022/10/09 05:53:08;;;;;;;5.80;4.73;;;;;;;;;;4950942;28;20450;-69
2022/10/09 05:55:34;;;;;;;4.67;4.50;;;;;;;;;;4951687;28;20489;-69
2022/10/09 05:58:00;;;;;;;4.40;4.20;;;;;;;;;;4950846;28;20427;-68
2022/10/09 06:00:26;;;;;;;4.50;4.40;;;;;;;;;;4951349;28;20966;-68
2022/10/09 06:02:52;;;;;;;4.60;4.30;;;;;;;;;;4950878;28;20811;-68
2022/10/09 06:05:18;;;;;;;3.73;3.53;;;;;;;;;;4949862;28;20492;-68
2022/10/09 06:07:45;;;;;;;4.37;4.13;;;;;;;;;;4950776;28;20445;-68
2022/10/09 06:10:11;;;;;;;5.40;5.00;;;;;;;;;;4950927;28;20827;-68
2022/10/09 06:12:37;;;;;;;4.90;4.70;;;;;;;;;;4951434;28;20469;-69
2022/10/09 06:15:04;;;;;;;4.80;4.50;;;;;;;;;;4949262;28;20447;-70
2022/10/09 06:17:30;;;;;;;4.63;4.33;;;;;;;;;;4950153;28;20928;-72
2022/10/09 06:19:56;;;;;;;4.60;4.30;;;;;;;;;;4951390;28;20535;-70
2022/10/09 06:22:22;;;;;;;4.30;4.13;;;;;;;;;;4951326;28;20920;-71
2022/10/09 06:24:47;;;;;;;5.13;4.87;;;;;;;;;;4949010;28;20438;-71
2022/10/09 06:27:13;;;;;;;4.73;4.30;;;;;;;;;;4950508;28;20481;-73
2022/10/09 06:29:39;;;;;;;4.90;4.60;;;;;;;;;;4950274;28;20427;-71
2022/10/09 06:32:05;;;;;;;4.87;4.67;;;;;;;;;;4950871;28;20544;-70
2022/10/09 06:34:31;;;;;;;5.40;5.00;;;;;;;;;;4950882;28;20920;-68
2022/10/09 06:36:57;;;;;;;6.00;5.47;;;;;;;;;;4950587;28;20826;-71
2022/10/09 06:39:25;;;;;;;6.90;6.23;;;;;;;;;;4949948;28;20435;-69
2022/10/09 06:41:51;;;;;;;5.87;5.43;;;;;;;;;;4950281;28;20434;-70
2022/10/09 06:44:17;;;;;;;6.63;6.00;;;;;;;;;;4949916;28;20457;-69
2022/10/09 06:46:43;;;;;;;6.23;5.63;;;;;;;;;;4950340;28;20420;-69
2022/10/09 06:49:10;;;;;;;7.10;6.50;;;;;;;;;;4951234;28;20442;-69
2022/10/09 06:51:36;;;;;;;5.87;5.33;;;;;;;;;;4950653;28;20486;-70
2022/10/09 06:54:03;;;;;;;5.90;5.50;;;;;;;;;;4951708;28;20441;-71
2022/10/09 06:56:31;;;;;;;7.70;6.97;;;;;;;;;;4954121;28;20463;-71
2022/10/09 06:59:00;;;;;;;7.30;6.60;;;;;;;;;;4954149;28;20893;-71
2022/10/09 07:01:29;;;;;;;6.13;5.70;;;;;;;;;;4954349;28;20864;-71
2022/10/09 07:03:56;;;;;;;5.67;5.37;;;;;;;;;;4954199;28;20435;-71
2022/10/09 07:06:23;;;;;;;5.80;5.30;;;;;;;;;;4953444;28;20474;-70
2022/10/09 07:08:51;;;;;;;5.40;5.00;;;;;;;;;;4953165;28;20457;-71
2022/10/09 07:11:21;;;;;;;6.23;5.83;;;;;;;;;;4952782;28;20489;-71
2022/10/09 07:13:48;;;;;;;4.97;4.67;;;;;;;;;;4952624;28;20518;-69
2022/10/09 07:16:17;;;;;;;7.13;6.50;;;;;;;;;;4952953;28;20502;-68
2022/10/09 07:18:43;;;;;;;6.83;6.23;;;;;;;;;;4953397;28;20446;-68
2022/10/09 07:21:09;;;;;;;5.10;4.80;;;;;;;;;;4953690;28;20438;-71
2022/10/09 07:23:36;;;;;;;4.13;4.03;;;;;;;;;;4953859;28;20510;-69
2022/10/09 07:26:02;;;;;;;6.80;5.10;;;;;;;;;;4954311;28;20497;-68
2022/10/09 07:28:29;;;;;;;6.03;4.43;;;;;;;;;;4952892;28;20474;-67
2022/10/09 07:30:56;;;;;;;4.93;4.60;;;;;;;;;;4950664;28;20574;-71
2022/10/09 07:33:21;;;;;;;4.57;4.40;;;;;;;;;;4952657;28;20466;-68
2022/10/09 07:35:54;;;;;;;8.03;4.40;;;;;;;;;;4952986;28;20978;-70
2022/10/09 07:38:21;;;;;;;5.80;5.30;;;;;;;;;;4952900;28;20525;-69
2022/10/09 07:40:47;;;;;;;4.30;4.20;;;;;;;;;;4953340;28;20453;-68
2022/10/09 07:43:13;;;;;;;4.73;4.60;;;;;;;;;;4951863;28;21002;-67
2022/10/09 07:45:39;;;;;;;6.17;5.70;;;;;;;;;;4953174;28;20835;-67
2022/10/09 07:48:04;;;;;;;6.00;5.50;;;;;;;;;;4953204;28;20435;-68
2022/10/09 07:50:30;;;;;;;4.20;4.00;;;;;;;;;;4951633;28;20482;-67
2022/10/09 07:52:56;;;;;;;5.57;5.17;;;;;;;;;;4952448;28;20526;-70
2022/10/09 07:55:22;;;;;;;5.90;5.57;;;;;;;;;;4951439;28;20450;-68
2022/10/09 07:57:49;;;;;;;6.93;6.23;;;;;;;;;;4953211;28;20462;-69
2022/10/09 08:00:15;;;;;;;7.53;5.60;;;;;;;;;;4952594;28;20863;-70
2022/10/09 08:02:41;;;;;;;8.37;7.63;;;;;;;;;;4952987;28;20443;-67
2022/10/09 08:05:07;;;;;;;8.23;6.10;;;;;;;;;;4951093;28;20497;-67
2022/10/09 08:07:33;;;;;;;5.80;5.50;;;;;;;;;;4952064;28;20493;-68
2022/10/09 08:09:59;;;;;;;5.70;5.20;;;;;;;;;;4952090;28;20906;-68
2022/10/09 08:12:25;;;;;;;5.37;4.70;;;;;;;;;;4953097;28;20473;-68
2022/10/09 08:14:51;;;;;;;5.10;4.77;;;;;;;;;;4952096;28;20457;-69
2022/10/09 08:17:17;;;;;;;5.37;4.97;;;;;;;;;;4952564;28;20423;-68
2022/10/09 08:19:43;;;;;;;6.67;6.23;;;;;;;;;;4952263;28;20427;-68
2022/10/09 08:22:10;;;;;;;5.90;5.60;;;;;;;;;;4952457;28;20434;-68
2022/10/09 08:24:36;;;;;;;5.27;5.00;;;;;;;;;;4952041;28;20419;-67
2022/10/09 08:27:02;;;;;;;5.43;5.13;;;;;;;;;;4952558;28;20431;-68
2022/10/09 08:29:28;;;;;;;8.40;5.80;;;;;;;;;;4952325;28;20505;-68
2022/10/09 08:31:54;;;;;;;6.97;6.47;;;;;;;;;;4952363;28;20529;-68
2022/10/09 08:34:20;;;;;;;6.20;5.10;;;;;;;;;;4951124;28;20826;-68
2022/10/09 08:36:46;;;;;;;6.83;6.23;;;;;;;;;;4951399;28;20507;-69
2022/10/09 08:39:13;;;;;;;4.90;4.60;;;;;;;;;;4952440;28;20447;-68
2022/10/09 08:41:41;;;;;;;5.53;5.03;;;;;;;;;;4952676;28;20534;-70
2022/10/09 08:44:17;;;;;;;5.03;4.77;;;;;;;;;;4951239;28;20443;-68
2022/10/09 08:46:55;;;;;;;5.57;5.27;;;;;;;;;;4952100;28;20521;-71
2022/10/09 08:49:47;;;;;;;5.17;4.80;;;;;;;;;;4952067;28;20439;-72
2022/10/09 08:52:16;;;;;;;4.87;4.67;;;;;;;;;;4950519;28;20987;-70
2022/10/09 08:54:43;;;;;;;4.87;4.57;;;;;;;;;;4951697;28;20438;-69
2022/10/09 08:57:21;;;;;;;6.53;4.43;;;;;;;;;;4951899;28;20947;-69
2022/10/09 08:59:47;;;;;;;4.27;4.10;;;;;;;;;;4951647;28;20446;-73
2022/10/09 09:02:13;;;;;;;10.63;5.70;;;;;;;;;;4952326;28;20414;-70
2022/10/09 09:04:51;;;;;;;5.03;4.63;;;;;;;;;;4951812;28;20430;-70
2022/10/09 09:07:26;;;;;;;4.73;4.60;;;;;;;;;;4951820;28;20530;-70
2022/10/09 09:10:01;;;;;;;5.80;5.50;;;;;;;;;;4951447;28;20667;-69
2022/10/09 09:12:34;;;;;;;5.40;3.93;;;;;;;;;;4952157;28;20454;-71
2022/10/09 09:15:38;;;;;;;4.20;4.00;;;;;;;;;;4951396;28;20486;-71
2022/10/09 09:18:04;;;;;;;15.70;4.70;;;;;;;;;;4909897;29;20848;-70
2022/10/09 09:20:36;;;;;;;5.20;4.70;;;;;;;;;;4911375;29;20449;-68
2022/10/09 09:23:02;;;;;;;4.67;4.40;;;;;;;;;;4931408;28;20431;-69
2022/10/09 09:25:30;;;;;;;4.30;4.10;;;;;;;;;;4950860;28;20879;-69
2022/10/09 09:28:01;;;;;;;3.90;3.80;;;;;;;;;;4951388;28;20473;-69
2022/10/09 09:30:50;;;;;;;7.80;4.73;;;;;;;;;;4951565;28;20477;-69
2022/10/09 09:33:16;;;;;;;4.30;4.10;;;;;;;;;;4949612;28;20758;-69
2022/10/09 09:35:48;;;;;;;5.33;4.97;;;;;;;;;;4951926;28;20434;-72
2022/10/09 09:38:14;;;;;;;4.53;4.30;;;;;;;;;;4951539;28;20474;-72
2022/10/09 09:40:41;;;;;;;5.53;5.13;;;;;;;;;;4951493;28;20527;-70
2022/10/09 09:43:16;;;;;;;4.30;4.00;;;;;;;;;;4949720;28;20463;-70
2022/10/09 09:45:43;;;;;;;4.60;4.40;;;;;;;;;;4965883;28;20434;-69
2022/10/09 09:48:18;;;;;;;4.93;4.73;;;;;;;;;;4951075;28;20529;-69
2022/10/09 09:50:44;;;;;;;4.80;4.60;;;;;;;;;;4949994;28;20585;-69
2022/10/09 09:53:25;;;;;;;5.00;4.70;;;;;;;;;;4950637;28;20443;-69
2022/10/09 09:55:52;;;;;;;5.30;4.80;;;;;;;;;;4950682;28;20439;-71
2022/10/09 09:58:19;;;;;;;5.23;4.90;;;;;;;;;;4950207;28;20939;-69
2022/10/09 10:00:55;;;;;;;4.20;4.07;;;;;;;;;;4951731;28;21522;-71
2022/10/09 10:03:22;;;;;;;5.30;4.77;;;;;;;;;;4949859;28;20919;-68
2022/10/09 10:05:48;;;;;;;5.40;5.10;;;;;;;;;;4951010;28;20443;-71
2022/10/09 10:08:24;;;;;;;6.33;4.80;;;;;;;;;;4950025;28;20811;-68
2022/10/09 10:10:52;;;;;;;5.30;5.07;;;;;;;;;;4950362;28;21069;-68
2022/10/09 10:13:19;;;;;;;4.57;4.43;;;;;;;;;;4949437;28;20457;-68
2022/10/09 10:15:52;;;;;;;4.80;4.50;;;;;;;;;;4951357;28;20439;-68
2022/10/09 10:18:19;;;;;;;5.77;5.40;;;;;;;;;;4950851;28;20431;-69
2022/10/09 10:20:55;;;;;;;5.27;4.80;;;;;;;;;;4950806;28;20932;-68
2022/10/09 10:23:33;;;;;;;5.13;4.73;;;;;;;;;;4950636;28;20930;-69
2022/10/09 10:26:01;;;;;;;5.37;4.90;;;;;;;;;;4951102;28;20438;-68
2022/10/09 10:28:46;;;;;;;4.87;4.57;;;;;;;;;;4950754;28;20534;-68
2022/10/09 10:31:17;;;;;;;4.97;4.60;;;;;;;;;;4954922;28;20921;-69
2022/10/09 10:33:43;;;;;;;6.77;5.97;;;;;;;;;;4953839;28;20522;-68
2022/10/09 10:36:09;;;;;;;6.03;5.70;;;;;;;;;;4954740;28;21909;-68
2022/10/09 10:38:40;;;;;;;5.63;5.20;;;;;;;;;;4954428;28;20482;-68
2022/10/09 10:41:11;;;;;;;5.53;5.23;;;;;;;;;;4954243;28;20919;-67
2022/10/09 10:43:41;;;;;;;6.77;6.17;;;;;;;;;;4954368;28;20435;-68
2022/10/09 10:46:15;;;;;;;6.63;6.10;;;;;;;;;;4954988;28;20437;-68
2022/10/09 10:48:46;;;;;;;5.90;5.40;;;;;;;;;;4954501;28;20578;-71
2022/10/09 10:51:30;;;;;;;6.03;5.60;;;;;;;;;;4954179;28;21069;-67
2022/10/09 10:54:15;;;;;;;7.23;6.83;;;;;;;;;;4953866;28;20442;-68
2022/10/09 10:57:01;;;;;;;5.33;4.83;;;;;;;;;;4954352;28;20969;-72
2022/10/09 10:59:47;;;;;;;6.17;5.63;;;;;;;;;;4933796;28;20442;-68
2022/10/09 11:02:32;;;;;;;5.40;4.70;;;;;;;;;;4954101;28;20808;-72
2022/10/09 11:05:10;;;;;;;7.40;5.53;;;;;;;;;;4953041;28;20846;-69
2022/10/09 11:07:56;;;;;;;4.60;4.40;;;;;;;;;;4954116;28;20434;-69
2022/10/09 11:10:29;;;;;;;5.67;5.27;;;;;;;;;;4944390;28;20451;-70
2022/10/09 11:12:55;;;;;;;5.13;4.70;;;;;;;;;;4954285;28;20434;-68
2022/10/09 11:15:29;;;;;;;4.90;4.70;;;;;;;;;;4953635;28;20446;-69
2022/10/09 11:18:03;;;;;;;8.33;4.73;;;;;;;;;;4953355;28;20626;-71
2022/10/09 11:20:47;;;;;;;4.83;4.63;;;;;;;;;;4953949;28;21022;-69
2022/10/09 11:23:23;;;;;;;7.23;4.93;;;;;;;;;;4953584;28;20939;-68
2022/10/09 11:25:57;;;;;;;3.93;3.80;;;;;;;;;;4953781;28;20457;-69
2022/10/09 11:28:27;;;;;;;5.50;4.70;;;;;;;;;;4954128;28;20481;-68
2022/10/09 11:31:03;;;;;;;4.00;3.80;;;;;;;;;;4953210;28;21031;-69
2022/10/09 11:33:34;;;;;;;4.77;4.57;;;;;;;;;;4951038;28;20453;-69
2022/10/09 11:36:02;;;;;;;4.97;4.63;;;;;;;;;;4953205;28;20419;-68
2022/10/09 11:38:31;;;;;;;4.10;3.80;;;;;;;;;;4951064;28;20525;-69
2022/10/09 11:40:58;;;;;;;5.17;4.87;;;;;;;;;;4951840;28;20474;-72
2022/10/09 11:43:29;;;;;;;4.40;4.20;;;;;;;;;;4954035;28;20435;-68
2022/10/09 11:46:02;;;;;;;4.50;4.23;;;;;;;;;;4953666;28;20442;-68
2022/10/09 11:48:34;;;;;;;6.13;3.90;;;;;;;;;;4953577;28;20489;-69
2022/10/09 11:51:10;;;;;;;5.17;3.13;;;;;;;;;;4953254;28;20573;-69
2022/10/09 11:53:38;;;;;;;4.53;4.33;;;;;;;;;;4953372;28;20441;-69
2022/10/09 11:56:06;;;;;;;4.77;4.50;;;;;;;;;;4953443;28;20439;-69
2022/10/09 11:58:32;;;;;;;4.70;4.30;;;;;;;;;;4953122;28;20430;-68
2022/10/09 12:01:09;;;;;;;4.63;4.23;;;;;;;;;;4951718;28;21033;-69
2022/10/09 12:03:36;;;;;;;3.97;3.87;;;;;;;;;;4951569;28;20454;-69
2022/10/09 12:06:13;;;;;;;4.30;4.10;;;;;;;;;;4952284;28;20443;-70
2022/10/09 12:08:54;;;;;;;4.00;3.80;;;;;;;;;;4952188;28;20433;-68
2022/10/09 12:11:21;;;;;;;7.63;4.60;;;;;;;;;;4952942;28;20494;-68
2022/10/09 12:13:49;;;;;;;5.97;4.60;;;;;;;;;;4953441;28;20435;-70
2022/10/09 12:16:33;;;;;;;4.70;3.70;;;;;;;;;;4953464;28;20454;-68
2022/10/09 12:19:01;;;;;;;4.23;4.10;;;;;;;;;;4952175;28;20446;-69
2022/10/09 12:21:30;;;;;;;8.30;6.10;;;;;;;;;;4952030;28;20435;-69
2022/10/09 12:23:56;;;;;;;3.37;3.17;;;;;;;;;;4951365;28;20449;-68
2022/10/09 12:26:24;;;;;;;4.73;4.43;;;;;;;;;;4953004;28;20466;-69
2022/10/09 12:28:54;;;;;;;3.17;3.07;;;;;;;;;;4953454;28;20430;-70
2022/10/09 12:31:24;;;;;;;5.80;4.17;;;;;;;;;;4952607;28;20498;-72
2022/10/09 12:33:58;;;;;;;5.60;5.30;;;;;;;;;;4952125;28;20438;-71
2022/10/09 12:36:26;;;;;;;4.27;3.97;;;;;;;;;;4952489;28;20461;-71
2022/10/09 12:38:52;;;;;;;4.27;4.00;;;;;;;;;;4952282;28;20454;-68
2022/10/09 12:41:29;;;;;;;4.30;4.00;;;;;;;;;;4950520;28;20458;-69
2022/10/09 12:43:56;;;;;;;4.00;3.70;;;;;;;;;;4951638;28;20435;-69
2022/10/09 12:46:29;;;;;;;3.37;3.27;;;;;;;;;;4951981;28;20435;-69
2022/10/09 12:48:56;;;;;;;4.77;4.47;;;;;;;;;;4952007;28;20437;-68
2022/10/09 12:51:24;;;;;;;3.53;3.43;;;;;;;;;;4951413;28;20860;-71
2022/10/09 12:53:51;;;;;;;4.37;3.10;;;;;;;;;;4952313;28;20454;-69
2022/10/09 12:56:22;;;;;;;3.33;3.23;;;;;;;;;;4951941;28;21105;-68
2022/10/09 12:58:48;;;;;;;3.70;3.40;;;;;;;;;;4952070;28;20450;-72
2022/10/09 13:01:15;;;;;;;4.37;3.27;;;;;;;;;;4951585;28;20435;-69
2022/10/09 13:03:42;;;;;;;5.20;3.40;;;;;;;;;;4949927;28;20445;-69
2022/10/09 13:06:16;;;;;;;7.47;3.50;;;;;;;;;;4950531;28;20438;-70
2022/10/09 13:08:43;;;;;;;2.73;2.63;;;;;;;;;;4951325;28;20946;-69
2022/10/09 13:11:12;;;;;;;3.77;3.43;;;;;;;;;;4951364;28;20486;-69
2022/10/09 13:13:39;;;;;;;23.37;3.93;;;;;;;;;;4951861;28;20936;-68
2022/10/09 13:16:08;;;;;;;2.97;2.63;;;;;;;;;;4952101;28;20477;-72
2022/10/09 13:18:34;;;;;;;2.70;2.60;;;;;;;;;;4951935;28;20434;-69
2022/10/09 13:21:02;;;;;;;3.10;3.00;;;;;;;;;;4951743;28;20450;-70
2022/10/09 13:23:29;;;;;;;8.33;2.70;;;;;;;;;;4951303;28;20538;-70
2022/10/09 13:25:56;;;;;;;2.90;2.77;;;;;;;;;;4951923;28;20514;-69
2022/10/09 13:28:22;;;;;;;8.63;3.17;;;;;;;;;;4951897;28;20431;-68
2022/10/09 13:30:48;;;;;;;3.30;3.20;;;;;;;;;;4949930;28;21022;-68
2022/10/09 13:33:15;;;;;;;4.50;2.93;;;;;;;;;;4951314;28;20434;-69
2022/10/09 13:35:41;;;;;;;8.33;3.47;;;;;;;;;;4951515;28;20997;-71
2022/10/09 13:38:07;;;;;;;2.87;2.27;;;;;;;;;;4951753;28;20466;-68
2022/10/09 13:40:33;;;;;;;2.73;2.53;;;;;;;;;;4951160;28;20481;-69
2022/10/09 13:43:01;;;;;;;3.27;3.13;;;;;;;;;;4950415;28;20513;-69
2022/10/09 13:45:27;;;;;;;2.77;2.60;;;;;;;;;;4951613;28;20423;-68
2022/10/09 13:47:53;;;;;;;6.93;3.10;;;;;;;;;;4951851;28;20593;-71
2022/10/09 13:50:20;;;;;;;2.80;2.60;;;;;;;;;;4950108;28;20441;-72
2022/10/09 13:52:46;;;;;;;2.73;2.60;;;;;;;;;;4951367;28;20438;-69
2022/10/09 13:55:12;;;;;;;3.43;3.17;;;;;;;;;;4949880;28;20461;-69
2022/10/09 13:57:38;;;;;;;3.33;3.13;;;;;;;;;;4951549;28;20435;-69
2022/10/09 14:00:05;;;;;;;2.40;2.20;;;;;;;;;;4950870;28;20871;-72
2022/10/09 14:02:31;;;;;;;4.03;2.63;;;;;;;;;;4950365;28;20431;-70
2022/10/09 14:04:57;;;;;;;2.70;2.60;;;;;;;;;;4954529;28;20433;-71
2022/10/09 14:07:23;;;;;;;6.13;2.47;;;;;;;;;;4954493;28;20423;-70
2022/10/09 14:09:49;;;;;;;2.20;2.10;;;;;;;;;;4955464;28;20931;-69
2022/10/09 14:12:15;;;;;;;4.07;2.57;;;;;;;;;;4955388;28;20846;-69
2022/10/09 14:14:41;;;;;;;2.50;2.40;;;;;;;;;;4954514;28;20431;-69
2022/10/09 14:17:06;;;;;;;2.40;2.30;;;;;;;;;;4955003;28;20438;-70
2022/10/09 14:19:32;;;;;;;3.23;3.00;;;;;;;;;;4954661;28;20441;-69
2022/10/09 14:21:58;;;;;;;3.20;2.90;;;;;;;;;;4954918;28;20441;-68
2022/10/09 14:24:24;;;;;;;3.50;3.00;;;;;;;;;;4954581;28;20445;-69
2022/10/09 14:26:51;;;;;;;3.13;2.80;;;;;;;;;;4954871;28;20446;-69
2022/10/09 14:29:17;;;;;;;3.13;2.57;;;;;;;;;;4955166;28;20438;-69
2022/10/09 14:31:43;;;;;;;2.87;2.67;;;;;;;;;;4954787;28;21021;-69
2022/10/09 14:34:09;;;;;;;3.90;2.57;;;;;;;;;;4953991;28;20431;-68
2022/10/09 14:36:36;;;;;;;2.80;2.60;;;;;;;;;;4954134;28;21692;-69
2022/10/09 14:39:02;;;;;;;2.87;2.63;;;;;;;;;;4954923;28;20954;-71
2022/10/09 14:41:28;;;;;;;3.63;3.37;;;;;;;;;;4955127;28;20543;-70
2022/10/09 14:43:55;;;;;;;3.10;2.90;;;;;;;;;;4954086;28;20423;-72
2022/10/09 14:46:22;;;;;;;2.70;2.50;;;;;;;;;;4954644;28;20446;-69
2022/10/09 14:48:48;;;;;;;10.43;3.10;;;;;;;;;;4954346;28;20486;-70